createdAt,value
2023-10-26T00:01:23.456Z,45.95
2023-10-26T00:03:29.069Z,45.95
2023-10-26T00:05:34.719Z,46.02
2023-10-26T00:07:40.120Z,45.97
2023-10-26T00:09:45.431Z,46.04
2023-10-26T00:11:50.915Z,46.02
2023-10-26T00:13:56.162Z,46.04
2023-10-26T00:16:01.496Z,46.1
2023-10-26T00:18:07.492Z,46.26
2023-10-26T00:20:13.268Z,46.08
2023-10-26T00:22:18.602Z,46.1
2023-10-26T00:24:23.995Z,46.2
2023-10-26T00:26:29.564Z,46.18
2023-10-26T00:28:35.007Z,46.11
2023-10-26T00:30:40.208Z,46.18
2023-10-26T00:32:45.666Z,46.14
2023-10-26T00:34:51.145Z,46.23
2023-10-26T00:36:56.469Z,46.25
2023-10-26T00:39:01.931Z,46.34
2023-10-26T00:41:07.162Z,46.27
2023-10-26T00:43:12.457Z,46.24
2023-10-26T00:45:17.866Z,46.26
2023-10-26T00:47:23.341Z,46.38
2023-10-26T00:49:28.832Z,46.26
2023-10-26T00:51:34.319Z,46.32
2023-10-26T00:53:39.664Z,46.4
2023-10-26T00:55:45.103Z,46.36
2023-10-26T00:57:50.642Z,46.33
2023-10-26T00:59:56.199Z,46.32
2023-10-26T01:02:01.715Z,46.31
2023-10-26T01:04:07.062Z,46.32
2023-10-26T01:06:12.522Z,46.55
2023-10-26T01:08:17.926Z,46.43
2023-10-26T01:10:23.387Z,46.38
2023-10-26T01:12:28.947Z,46.58
2023-10-26T01:15:15.818Z,46.55
2023-10-26T01:17:21.535Z,46.56
2023-10-26T01:19:27.212Z,46.58
2023-10-26T01:21:32.579Z,46.57
2023-10-26T01:23:37.807Z,46.53
2023-10-26T01:25:43.242Z,46.63
2023-10-26T01:27:48.696Z,46.62
2023-10-26T01:29:54.145Z,46.56
2023-10-26T01:31:59.520Z,46.65
2023-10-26T01:34:04.836Z,46.56
2023-10-26T01:36:10.233Z,46.63
2023-10-26T01:38:15.708Z,46.71
2023-10-26T01:40:21.132Z,46.67
2023-10-26T01:42:26.591Z,46.73
2023-10-26T01:44:32.001Z,46.63
2023-10-26T01:46:37.444Z,46.69
2023-10-26T01:48:43.048Z,46.74
2023-10-26T01:50:48.440Z,46.66
2023-10-26T01:52:53.761Z,46.63
2023-10-26T01:54:59.109Z,46.67
2023-10-26T01:57:04.668Z,46.8
2023-10-26T01:59:10.252Z,46.83
2023-10-26T02:01:15.740Z,46.74
2023-10-26T02:03:21.367Z,46.75
2023-10-26T02:05:26.974Z,46.91
2023-10-26T02:07:32.271Z,46.77
2023-10-26T02:09:37.513Z,46.88
2023-10-26T02:11:42.841Z,46.85
2023-10-26T02:13:48.127Z,46.83
2023-10-26T02:15:53.481Z,46.88
2023-10-26T02:17:59.131Z,46.92
2023-10-26T02:20:04.445Z,46.92
2023-10-26T02:22:09.933Z,46.87
2023-10-26T02:24:15.607Z,46.87
2023-10-26T02:26:21.024Z,46.82
2023-10-26T02:28:26.567Z,46.88
2023-10-26T02:30:31.883Z,46.92
2023-10-26T02:32:37.351Z,46.95
2023-10-26T02:34:43.170Z,46.89
2023-10-26T02:36:48.782Z,47.07
2023-10-26T02:38:54.495Z,47.03
2023-10-26T02:41:01.277Z,46.99
2023-10-26T02:43:06.895Z,47.11
2023-10-26T02:45:12.329Z,47.05
2023-10-26T02:47:17.632Z,47.21
2023-10-26T02:49:22.863Z,47.09
2023-10-26T02:51:28.193Z,47.2
2023-10-26T02:53:33.582Z,47.19
2023-10-26T02:55:39.124Z,47.29
2023-10-26T02:57:44.562Z,47.36
2023-10-26T02:59:50.104Z,47.32
2023-10-26T03:01:55.540Z,47.51
2023-10-26T03:04:01.083Z,47.37
2023-10-26T03:06:06.565Z,47.44
2023-10-26T03:08:11.978Z,47.62
2023-10-26T03:10:17.456Z,47.51
2023-10-26T03:12:23.001Z,47.44
2023-10-26T03:14:28.613Z,47.58
2023-10-26T03:16:34.178Z,47.62
2023-10-26T03:18:39.628Z,47.58
2023-10-26T03:20:44.945Z,47.7
2023-10-26T03:22:50.377Z,47.5
2023-10-26T03:24:55.925Z,47.63
2023-10-26T03:27:01.288Z,47.7
2023-10-26T03:29:06.796Z,47.65
2023-10-26T03:31:12.227Z,47.8
2023-10-26T03:33:17.990Z,47.72
2023-10-26T03:35:23.570Z,47.82
2023-10-26T03:37:28.763Z,47.67
2023-10-26T03:39:34.317Z,47.68
2023-10-26T03:41:39.750Z,47.78
2023-10-26T03:43:45.059Z,47.63
2023-10-26T03:45:50.540Z,47.7
2023-10-26T03:47:56.318Z,47.83
2023-10-26T03:50:01.833Z,47.76
2023-10-26T03:52:07.250Z,47.68
2023-10-26T03:54:12.653Z,47.72
2023-10-26T03:56:18.027Z,47.69
2023-10-26T03:58:23.398Z,47.81
2023-10-26T04:00:28.833Z,47.81
2023-10-26T04:02:34.356Z,47.83
2023-10-26T04:04:39.652Z,47.84
2023-10-26T04:06:45.149Z,47.79
2023-10-26T04:08:50.524Z,47.89
2023-10-26T04:10:55.906Z,48.02
2023-10-26T04:13:01.244Z,47.98
2023-10-26T04:15:06.586Z,47.85
2023-10-26T04:17:12.228Z,48.05
2023-10-26T04:19:17.653Z,48.15
2023-10-26T04:21:23.103Z,48.02
2023-10-26T04:23:28.498Z,47.97
2023-10-26T04:25:56.732Z,47.98
2023-10-26T04:28:02.154Z,48.04
2023-10-26T04:30:07.542Z,48.01
2023-10-26T04:32:12.803Z,48
2023-10-26T04:34:18.172Z,48.1
2023-10-26T04:36:23.849Z,48.17
2023-10-26T04:38:29.133Z,48.11
2023-10-26T04:40:34.287Z,48.12
2023-10-26T04:42:39.474Z,48.15
2023-10-26T04:44:46.266Z,48.2
2023-10-26T04:46:54.346Z,48.24
2023-10-26T04:48:59.846Z,48.27
2023-10-26T04:51:05.410Z,48.4
2023-10-26T04:53:10.843Z,48.33
2023-10-26T04:55:16.371Z,48.42
2023-10-26T04:57:22.965Z,48.46
2023-10-26T04:59:28.232Z,48.37
2023-10-26T05:01:33.854Z,48.43
2023-10-26T05:03:39.454Z,48.51
2023-10-26T05:05:44.875Z,48.56
2023-10-26T05:07:50.333Z,48.6
2023-10-26T05:09:55.880Z,48.56
2023-10-26T05:12:01.298Z,48.57
2023-10-26T05:14:06.535Z,48.32
2023-10-26T05:16:11.972Z,48.34
2023-10-26T05:18:17.688Z,48.09
2023-10-26T05:20:23.013Z,47.88
2023-10-26T05:22:28.423Z,47.77
2023-10-26T05:24:33.974Z,47.68
2023-10-26T05:26:39.315Z,47.75
2023-10-26T05:28:44.740Z,47.71
2023-10-26T05:30:50.079Z,47.59
2023-10-26T05:32:55.668Z,47.55
2023-10-26T05:35:01.266Z,47.42
2023-10-26T05:37:06.598Z,47.38
2023-10-26T05:39:12.469Z,47.4
2023-10-26T05:41:17.883Z,47.34
2023-10-26T05:43:23.331Z,47.27
2023-10-26T05:45:28.806Z,47.14
2023-10-26T05:47:34.146Z,47.03
2023-10-26T05:49:39.575Z,47.07
2023-10-26T05:51:44.989Z,46.98
2023-10-26T05:53:50.376Z,46.99
2023-10-26T05:55:55.861Z,46.91
2023-10-26T05:58:01.301Z,46.91
2023-10-26T06:00:06.789Z,46.73
2023-10-26T06:02:12.280Z,46.76
2023-10-26T06:04:17.831Z,46.73
2023-10-26T06:06:23.338Z,46.7
2023-10-26T06:08:28.649Z,46.64
2023-10-26T06:10:34.174Z,46.63
2023-10-26T06:12:39.603Z,46.57
2023-10-26T06:14:45.425Z,46.51
2023-10-26T06:16:51.204Z,46.27
2023-10-26T06:18:56.684Z,46.46
2023-10-26T06:21:02.557Z,46.51
2023-10-26T06:23:08.028Z,46.46
2023-10-26T06:25:13.575Z,46.46
2023-10-26T06:27:18.955Z,46.43
2023-10-26T06:29:24.725Z,46.49
2023-10-26T06:31:30.316Z,46.43
2023-10-26T06:33:35.747Z,46.37
2023-10-26T06:35:41.163Z,46.3
2023-10-26T06:37:51.192Z,46.29
2023-10-26T06:39:56.770Z,46.28
2023-10-26T06:42:04.914Z,46.27
2023-10-26T06:44:12.748Z,46.21
2023-10-26T06:46:18.379Z,46.23
2023-10-26T06:48:26.475Z,46.23
2023-10-26T06:50:34.414Z,46.25
2023-10-26T06:52:42.911Z,46.17
2023-10-26T06:54:55.858Z,46.18
2023-10-26T06:57:04.398Z,46.19
2023-10-26T06:59:09.893Z,46.19
2023-10-26T07:01:23.626Z,46.2
2023-10-26T07:03:32.376Z,46.16
2023-10-26T07:05:45.375Z,46.28
2023-10-26T07:07:53.367Z,46.19
2023-10-26T07:10:01.476Z,46.17
2023-10-26T07:12:09.307Z,46.23
2023-10-26T07:14:17.025Z,46.13
2023-10-26T07:16:27.857Z,46.17
2023-10-26T07:18:42.108Z,46.13
2023-10-26T07:20:47.729Z,46.16
2023-10-26T07:23:03.704Z,46.16
2023-10-26T07:25:09.263Z,46.12
2023-10-26T07:27:17.558Z,46.18
2023-10-26T07:29:23.007Z,46.13
2023-10-26T07:31:28.594Z,46.14
2023-10-26T07:33:33.981Z,46.12
2023-10-26T07:35:39.624Z,46.1
2023-10-26T07:38:05.620Z,46.13
2023-10-26T07:40:40.848Z,46.07
2023-10-26T07:42:47.986Z,46.07
2023-10-26T07:44:53.415Z,46.04
2023-10-26T07:46:58.730Z,46.02
2023-10-26T07:49:04.301Z,46.07
2023-10-26T07:51:09.674Z,46.03
2023-10-26T07:53:15.177Z,46.02
2023-10-26T07:55:20.612Z,46.08
2023-10-26T07:57:26.272Z,46.09
2023-10-26T07:59:31.643Z,46.06
2023-10-26T08:01:37.268Z,46.09
2023-10-26T08:03:42.991Z,46.04
2023-10-26T08:05:48.434Z,46.03
2023-10-26T08:07:53.921Z,46.03
2023-10-26T08:09:59.318Z,46.03
2023-10-26T08:12:04.685Z,45.97
2023-10-26T08:16:44.451Z,46.01
2023-10-26T08:18:51.978Z,45.91
2023-10-26T08:20:58.269Z,45.88
2023-10-26T08:23:04.021Z,45.89
2023-10-26T08:25:09.660Z,45.92
2023-10-26T08:27:15.116Z,45.84
2023-10-26T08:29:30.658Z,45.86
2023-10-26T08:31:36.270Z,45.86
2023-10-26T08:33:41.997Z,45.87
2023-10-26T08:35:47.414Z,45.98
2023-10-26T08:37:52.951Z,45.71
2023-10-26T08:39:58.487Z,45.73
2023-10-26T08:42:04.035Z,45.62
2023-10-26T08:44:09.408Z,45.18
2023-10-26T08:46:15.169Z,45.74
2023-10-26T08:48:20.760Z,45.66
2023-10-26T08:50:26.459Z,45.66
2023-10-26T08:52:31.968Z,45.54
2023-10-26T08:54:37.498Z,45.62
2023-10-26T08:56:42.933Z,45.65
2023-10-26T08:58:48.478Z,45.61
2023-10-26T09:00:53.911Z,45.68
2023-10-26T09:02:59.934Z,45.65
2023-10-26T09:05:05.960Z,45.63
2023-10-26T09:07:11.368Z,45.66
2023-10-26T09:09:17.018Z,45.62
2023-10-26T09:11:22.557Z,45.65
2023-10-26T09:13:28.635Z,45.65
2023-10-26T09:15:34.161Z,45.63
2023-10-26T09:17:39.918Z,45.64
2023-10-26T09:19:45.666Z,45.66
2023-10-26T09:21:51.120Z,45.84
2023-10-26T09:23:56.416Z,45.54
2023-10-26T09:26:02.042Z,45.56
2023-10-26T09:28:07.670Z,45.59
2023-10-26T09:30:12.919Z,45.7
2023-10-26T09:32:18.365Z,45.55
2023-10-26T09:34:23.974Z,45.42
2023-10-26T09:36:29.220Z,45.4
2023-10-26T09:38:34.618Z,45.34
2023-10-26T09:40:40.178Z,45.31
2023-10-26T09:42:45.455Z,45.08
2023-10-26T09:44:50.930Z,44.98
2023-10-26T09:46:56.469Z,44.96
2023-10-26T09:49:02.388Z,45.31
2023-10-26T09:51:07.749Z,45.11
2023-10-26T09:53:14.173Z,45
2023-10-26T09:55:19.780Z,45.06
2023-10-26T09:57:25.368Z,45.2
2023-10-26T09:59:30.876Z,45.05
2023-10-26T10:01:36.686Z,45.05
2023-10-26T10:03:42.067Z,45.31
2023-10-26T10:05:47.495Z,45.02
2023-10-26T10:07:52.919Z,45.26
2023-10-26T10:09:58.308Z,45.28
2023-10-26T10:12:03.736Z,45.11
2023-10-26T10:14:09.105Z,45
2023-10-26T10:16:14.774Z,45.3
2023-10-26T10:18:20.319Z,45.44
2023-10-26T10:20:25.639Z,45.61
2023-10-26T10:22:31.201Z,45.64
2023-10-26T10:24:36.572Z,45.67
2023-10-26T10:26:41.894Z,45.67
2023-10-26T10:28:47.334Z,45.69
2023-10-26T10:30:52.918Z,45.71
2023-10-26T10:32:58.643Z,45.71
2023-10-26T10:35:03.935Z,45.77
2023-10-26T10:37:09.341Z,45.66
2023-10-26T10:39:14.738Z,45.78
2023-10-26T10:41:20.049Z,45.76
2023-10-26T10:43:25.614Z,45.65
